Time;durP1;ratioP1;P1;durP2;ratioP2;P2;SDS_P1;SDS_P2;PMS_P1;PMS_P2;Temp;Humidity;BMP_temperature;BMP_pressure;BME280_temperature;BME280_humidity;BME280_pressure;Samples;Min_cycle;Max_cycle;Signal;HPM_P1;HPM_P2
2023/12/29 00:02:05;;;;;;;7.15;3.90;;;;;;;9.54;54.75;100493.28;1660560;84;21417;-94
2023/12/29 00:05:13;;;;;;;6.47;3.65;;;;;;;9.36;54.94;100482.97;1639958;85;21971;-93
2023/12/29 00:08:20;;;;;;;8.65;4.08;;;;;;;9.54;54.61;100482.36;1660814;83;21449;-94
2023/12/29 00:11:27;;;;;;;12.20;3.98;;;;;;;9.30;55.37;100481.76;1654216;84;21380;-92
2023/12/29 00:14:34;;;;;;;8.48;4.12;;;;;;;9.50;55.24;100488.31;1655344;83;21363;-93
2023/12/29 00:17:40;;;;;;;10.32;3.87;;;;;;;9.43;55.39;100480.80;1664969;85;22565;-93
2023/12/29 00:20:47;;;;;;;10.13;3.75;;;;;;;9.46;55.55;100474.16;1655719;84;21907;-92
2023/12/29 00:23:56;;;;;;;8.83;3.92;;;;;;;9.58;55.28;100481.02;1658121;83;21381;-93
2023/12/29 00:27:02;;;;;;;11.35;4.08;;;;;;;9.69;55.02;100482.58;1650803;84;21654;-93
2023/12/29 00:30:08;;;;;;;6.67;3.62;;;;;;;9.52;55.77;100464.45;1661487;85;21300;-93
2023/12/29 00:33:16;;;;;;;7.92;3.62;;;;;;;9.52;55.85;100457.63;1658901;84;21987;-93
2023/12/29 00:36:27;;;;;;;9.43;4.00;;;;;;;9.75;55.87;100452.39;1663134;83;21376;-95
2023/12/29 00:39:38;;;;;;;;;;;;;;;9.83;55.68;100442.83;1662607;84;21353;-92
2023/12/29 00:42:42;;;;;;;9.05;4.70;;;;;;;9.71;56.36;100430.87;1661092;80;20283;-93
2023/12/29 00:45:50;;;;;;;7.85;4.08;;;;;;;9.70;56.49;100451.53;1657954;84;21396;-93
2023/12/29 00:48:56;;;;;;;8.28;3.80;;;;;;;9.72;56.66;100456.30;1650214;83;21991;-94
2023/12/29 00:52:03;;;;;;;7.92;3.92;;;;;;;9.88;56.41;100440.44;1632783;84;21983;-93
2023/12/29 00:55:08;;;;;;;7.35;3.55;;;;;;;9.88;56.51;100420.83;1615538;86;21413;-93
2023/12/29 00:58:15;;;;;;;8.75;3.77;;;;;;;9.99;56.46;100417.76;1631766;85;21296;-92
2023/12/29 01:01:21;;;;;;;11.55;3.83;;;;;;;9.87;56.74;100405.44;1629479;85;21992;-92
2023/12/29 01:04:28;;;;;;;7.05;3.60;;;;;;;9.99;56.46;100380.87;1612633;88;21396;-92
2023/12/29 01:07:35;;;;;;;11.12;3.75;;;;;;;10.17;56.05;100367.55;1650441;84;22045;-94
2023/12/29 01:10:42;;;;;;;9.83;3.77;;;;;;;10.15;56.16;100383.25;1645317;86;21402;-95
2023/12/29 01:13:49;;;;;;;9.95;3.85;;;;;;;10.07;56.69;100385.97;1657514;84;21365;-94
2023/12/29 01:16:57;;;;;;;7.28;3.60;;;;;;;10.21;56.36;100388.05;1643643;85;21382;-93
2023/12/29 01:20:04;;;;;;;12.85;3.40;;;;;;;9.86;57.33;100399.64;1641349;85;21967;-93
2023/12/29 01:23:10;;;;;;;9.18;3.92;;;;;;;10.07;56.74;100394.17;1602237;86;21708;-93
2023/12/29 01:26:17;;;;;;;6.20;3.33;;;;;;;10.07;56.80;100381.39;1596206;87;21436;-94
2023/12/29 01:29:23;;;;;;;9.08;3.25;;;;;;;10.14;56.75;100388.38;1656976;84;21361;-94
2023/12/29 01:32:30;;;;;;;8.88;2.80;;;;;;;10.42;56.34;100389.75;1641233;85;21422;-94
2023/12/29 01:35:38;;;;;;;8.35;3.37;;;;;;;10.56;55.52;100384.59;1655384;84;22145;-93
2023/12/29 01:38:46;;;;;;;10.88;3.47;;;;;;;10.73;55.17;100380.80;1638051;85;21367;-93
2023/12/29 01:41:51;;;;;;;7.33;3.35;;;;;;;10.53;55.65;100364.42;1577925;88;21285;-92
2023/12/29 01:44:59;;;;;;;9.05;3.50;;;;;;;10.44;55.95;100348.06;1657649;86;21395;-92
2023/12/29 01:48:07;;;;;;;8.03;3.25;;;;;;;10.48;55.98;100348.02;1646640;85;21383;-92
2023/12/29 01:51:14;;;;;;;8.73;3.33;;;;;;;10.51;55.93;100347.34;1644614;85;22027;-93
2023/12/29 01:54:22;;;;;;;11.00;3.60;;;;;;;10.54;55.93;100330.56;1642337;86;21402;-94
2023/12/29 01:57:29;;;;;;;8.33;3.85;;;;;;;10.74;55.24;100331.89;1664503;83;21371;-93
2023/12/29 02:00:35;;;;;;;12.53;4.10;;;;;;;10.90;54.77;100326.33;1654596;84;21330;-94
2023/12/29 02:03:43;;;;;;;13.53;4.00;;;;;;;10.94;54.54;100338.63;1638055;83;21996;-93
2023/12/29 02:06:50;;;;;;;12.15;4.37;;;;;;;11.11;54.43;100349.52;1662503;84;21401;-95
2023/12/29 02:09:57;;;;;;;11.35;3.45;;;;;;;11.19;54.10;100352.19;1639086;85;22012;-94
2023/12/29 02:13:03;;;;;;;10.05;3.67;;;;;;;10.90;54.94;100359.69;1664067;86;21254;-94
2023/12/29 02:16:17;;;;;;;9.68;3.87;;;;;;;10.93;54.79;100359.34;1660380;84;21344;-94
2023/12/29 02:19:34;;;;;;;9.58;3.42;;;;;;;11.02;54.79;100343.23;1640585;81;21366;-94
2023/12/29 02:22:41;;;;;;;6.25;3.27;;;;;;;11.10;54.66;100332.21;1629839;86;21370;-93
2023/12/29 02:25:47;;;;;;;14.83;4.00;;;;;;;11.28;54.00;100321.52;1662622;83;21344;-93
2023/12/29 02:28:56;;;;;;;9.40;3.55;;;;;;;11.15;54.37;100326.20;1661473;85;21950;-93
2023/12/29 02:32:03;;;;;;;11.10;3.92;;;;;;;11.17;54.29;100315.94;1660346;84;21732;-93
2023/12/29 02:35:10;;;;;;;7.70;2.87;;;;;;;11.10;54.54;100313.57;1662434;82;21383;-93
2023/12/29 02:38:16;;;;;;;9.45;3.10;;;;;;;10.90;55.10;100315.38;1651481;84;21907;-94
2023/12/29 02:41:22;;;;;;;12.13;3.50;;;;;;;10.69;55.85;100305.06;1656707;82;21793;-93
2023/12/29 02:44:29;;;;;;;11.05;3.10;;;;;;;10.81;55.69;100305.50;1655432;84;21258;-93
2023/12/29 02:47:34;;;;;;;7.75;3.05;;;;;;;11.09;54.98;100309.13;1658097;84;21233;-93
2023/12/29 02:50:40;;;;;;;8.35;3.65;;;;;;;10.86;55.53;100304.45;1665400;85;21274;-93
2023/12/29 02:53:49;;;;;;;9.28;3.90;;;;;;;10.79;55.83;100308.10;1638088;85;21360;-92
2023/12/29 02:56:56;;;;;;;8.30;3.30;;;;;;;10.71;56.17;100306.23;1636709;86;21365;-92
2023/12/29 03:00:01;;;;;;;7.05;3.50;;;;;;;10.68;56.20;100287.44;1615279;85;21279;-94
2023/12/29 03:03:08;;;;;;;8.98;3.47;;;;;;;10.75;56.13;100283.82;1612983;87;21373;-94
2023/12/29 03:06:15;;;;;;;10.15;3.62;;;;;;;10.62;56.42;100276.69;1612612;86;21347;-93
2023/12/29 03:09:21;;;;;;;10.93;3.60;;;;;;;10.60;56.72;100280.14;1659015;83;21354;-94
2023/12/29 03:12:30;;;;;;;7.87;3.22;;;;;;;10.73;56.70;100278.20;1656229;84;21356;-93
2023/12/29 03:15:37;;;;;;;8.38;3.10;;;;;;;10.82;56.68;100283.98;1641380;85;21366;-93
2023/12/29 03:18:44;;;;;;;10.75;3.62;;;;;;;10.73;56.83;100268.63;1657664;84;21398;-92
2023/12/29 03:21:50;;;;;;;11.05;4.22;;;;;;;10.83;56.88;100263.79;1646078;84;22010;-92
2023/12/29 03:24:56;;;;;;;7.75;4.10;;;;;;;10.98;56.36;100272.93;1644052;81;21455;-94
2023/12/29 03:28:03;;;;;;;10.58;4.42;;;;;;;11.05;56.02;100277.67;1643384;85;21605;-93
2023/12/29 03:31:10;;;;;;;13.50;3.60;;;;;;;11.08;56.01;100273.22;1645569;84;21391;-93
2023/12/29 03:34:16;;;;;;;14.05;3.65;;;;;;;11.12;56.09;100272.68;1646146;85;21349;-92
2023/12/29 03:37:23;;;;;;;9.38;3.40;;;;;;;11.23;55.90;100263.19;1637885;85;21396;-94
2023/12/29 03:40:31;;;;;;;10.20;3.92;;;;;;;11.35;55.61;100253.53;1599918;87;21323;-93
2023/12/29 03:43:37;;;;;;;8.53;3.87;;;;;;;11.22;56.01;100249.17;1617748;85;21433;-93
2023/12/29 03:46:43;;;;;;;10.65;5.10;;;;;;;11.11;56.33;100238.66;1617616;86;22014;-93
2023/12/29 03:49:49;;;;;;;11.18;5.40;;;;;;;11.21;56.36;100232.42;1633564;85;21401;-92
2023/12/29 03:52:56;;;;;;;15.90;5.42;;;;;;;11.15;56.52;100233.13;1605055;87;22030;-94
2023/12/29 03:56:01;;;;;;;11.88;5.03;;;;;;;11.14;56.83;100236.91;1605443;86;21962;-93
2023/12/29 03:59:09;;;;;;;12.35;4.80;;;;;;;10.89;57.83;100240.33;1602394;86;22014;-94
2023/12/29 04:02:17;;;;;;;12.40;5.05;;;;;;;11.02;57.59;100235.11;1607577;86;21422;-94
2023/12/29 04:05:23;;;;;;;13.95;5.35;;;;;;;11.21;57.31;100237.89;1611113;86;21389;-93
2023/12/29 04:08:30;;;;;;;8.85;5.17;;;;;;;11.13;57.59;100235.20;1602730;86;22603;-93
2023/12/29 04:11:37;;;;;;;8.35;4.83;;;;;;;11.22;57.62;100236.85;1609410;87;21926;-93
2023/12/29 04:14:44;;;;;;;12.60;5.30;;;;;;;11.27;57.34;100249.48;1633132;83;21389;-93
2023/12/29 04:17:50;;;;;;;15.43;5.75;;;;;;;11.31;57.05;100254.92;1629356;85;21385;-93
2023/12/29 04:20:58;;;;;;;9.20;5.00;;;;;;;11.04;58.07;100249.98;1633967;85;21407;-92
2023/12/29 04:24:04;;;;;;;11.33;5.75;;;;;;;11.08;58.19;100249.44;1629721;85;21368;-93
2023/12/29 04:27:10;;;;;;;15.88;6.45;;;;;;;10.87;58.92;100248.72;1635166;85;21983;-94
2023/12/29 04:30:18;;;;;;;15.40;7.30;;;;;;;11.06;58.47;100243.30;1629109;85;21385;-95
2023/12/29 04:33:26;;;;;;;12.45;7.25;;;;;;;11.19;58.11;100233.95;1634685;86;21372;-93
2023/12/29 04:36:32;;;;;;;16.15;6.60;;;;;;;11.12;58.29;100243.94;1637083;84;21278;-93
2023/12/29 04:39:40;;;;;;;20.25;6.75;;;;;;;11.33;58.11;100244.63;1663235;84;21364;-93
2023/12/29 04:42:48;;;;;;;15.53;6.35;;;;;;;11.07;58.46;100245.52;1657578;84;21356;-92
2023/12/29 04:45:56;;;;;;;17.40;6.78;;;;;;;11.63;57.61;100246.12;1663586;83;21565;-93
2023/12/29 04:49:04;;;;;;;13.85;6.37;;;;;;;11.29;58.55;100241.07;1636388;86;21927;-93
2023/12/29 04:52:11;;;;;;;22.25;7.90;;;;;;;11.63;57.70;100236.02;1655875;83;21382;-94
2023/12/29 04:55:18;;;;;;;14.68;6.78;;;;;;;11.60;57.57;100242.37;1658032;84;21295;-93
2023/12/29 04:58:25;;;;;;;15.98;7.40;;;;;;;11.26;58.46;100238.20;1640188;84;21288;-92
2023/12/29 05:01:31;;;;;;;18.35;8.48;;;;;;;10.96;59.58;100233.08;1661757;83;21269;-92
2023/12/29 05:04:38;;;;;;;18.45;7.37;;;;;;;11.00;59.61;100228.43;1656035;84;21432;-93
2023/12/29 05:07:44;;;;;;;13.98;7.83;;;;;;;10.82;60.21;100227.89;1652289;85;21376;-93
2023/12/29 05:10:51;;;;;;;16.45;7.05;;;;;;;10.80;60.58;100235.41;1655815;84;21752;-92
2023/12/29 05:13:57;;;;;;;17.10;7.72;;;;;;;11.04;59.80;100231.66;1656765;83;21247;-95
2023/12/29 05:17:03;;;;;;;16.55;8.58;;;;;;;10.97;60.16;100226.08;1645663;84;21377;-95
2023/12/29 05:20:10;;;;;;;20.25;8.40;;;;;;;11.18;59.70;100230.88;1660072;85;21275;-92
2023/12/29 05:23:16;;;;;;;18.85;9.43;;;;;;;11.33;59.47;100241.89;1641353;84;21392;-93
2023/12/29 05:26:25;;;;;;;17.95;7.95;;;;;;;11.36;59.23;100242.06;1626447;84;21367;-94
2023/12/29 05:29:32;;;;;;;;;;;;;;;11.46;59.55;100247.61;1659450;83;21345;-93
2023/12/29 05:32:40;;;;;;;18.80;9.50;;;;;;;11.33;59.87;100250.11;1638799;86;20290;-93
2023/12/29 05:35:46;;;;;;;22.05;8.68;;;;;;;11.35;60.07;100257.64;1659654;84;21376;-92
2023/12/29 05:38:53;;;;;;;19.65;9.28;;;;;;;11.58;59.59;100256.78;1653468;81;21393;-93
2023/12/29 05:42:00;;;;;;;20.15;10.15;;;;;;;11.68;59.14;100253.27;1661617;85;21344;-93
2023/12/29 05:45:05;;;;;;;21.62;10.78;;;;;;;11.46;59.70;100256.34;1655045;84;21322;-94
2023/12/29 05:48:11;;;;;;;22.30;10.85;;;;;;;11.70;59.31;100260.77;1642949;84;21365;-94
2023/12/29 05:51:20;;;;;;;21.65;10.55;;;;;;;11.74;59.27;100256.10;1663773;83;21277;-93
2023/12/29 05:54:26;;;;;;;19.17;9.85;;;;;;;11.77;59.22;100261.22;1658615;84;21357;-93
2023/12/29 05:57:33;;;;;;;24.95;10.55;;;;;;;11.84;59.11;100264.09;1660977;84;22001;-93
2023/12/29 06:00:39;;;;;;;27.20;12.80;;;;;;;11.82;59.28;100263.44;1659980;84;21401;-94
2023/12/29 06:03:46;;;;;;;21.40;10.58;;;;;;;11.85;59.46;100268.53;1645334;84;21373;-94
2023/12/29 06:06:53;;;;;;;22.50;10.78;;;;;;;11.96;59.24;100268.63;1657866;84;21391;-92
2023/12/29 06:10:00;;;;;;;17.17;9.65;;;;;;;12.08;59.01;100267.63;1647245;85;21416;-92
2023/12/29 06:13:09;;;;;;;20.75;11.05;;;;;;;12.27;58.46;100268.45;1644852;82;21979;-93
2023/12/29 06:16:16;;;;;;;22.07;10.50;;;;;;;12.26;58.27;100264.02;1646708;85;21395;-94
2023/12/29 06:19:21;;;;;;;20.10;9.53;;;;;;;12.33;57.89;100268.21;1636645;85;21411;-92
2023/12/29 06:22:31;;;;;;;18.10;9.88;;;;;;;12.30;57.98;100259.86;1632122;86;21423;-92
2023/12/29 06:25:41;;;;;;;19.67;9.83;;;;;;;12.39;57.75;100256.51;1635930;85;21376;-92
2023/12/29 06:28:52;;;;;;;19.73;10.17;;;;;;;12.31;57.74;100247.84;1638786;85;21383;-92
2023/12/29 06:31:59;;;;;;;16.35;10.20;;;;;;;12.32;57.87;100250.06;1638902;87;21280;-93
2023/12/29 06:35:16;;;;;;;20.15;9.43;;;;;;;12.14;58.20;100249.05;1643976;84;21420;-93
2023/12/29 06:38:18;;;;;;;20.05;9.78;;;;;;;12.50;57.49;100251.91;1650529;85;21348;-93
2023/12/29 06:41:28;;;;;;;22.55;9.70;;;;;;;12.47;57.30;100256.42;1637500;82;21369;-92
2023/12/29 06:44:36;;;;;;;29.75;11.10;;;;;;;12.17;58.24;100252.80;1628018;85;21657;-93
2023/12/29 06:47:43;;;;;;;23.73;10.63;;;;;;;12.22;58.39;100253.93;1634833;85;21361;-92
2023/12/29 06:50:50;;;;;;;22.93;11.33;;;;;;;12.34;58.08;100248.00;1634543;83;21272;-93
2023/12/29 06:53:59;;;;;;;22.00;10.63;;;;;;;12.49;57.48;100256.54;1666352;85;21346;-93
2023/12/29 06:57:15;;;;;;;19.60;10.43;;;;;;;12.39;57.79;100250.50;1648823;84;21337;-92
2023/12/29 07:00:23;;;;;;;19.50;10.23;;;;;;;12.47;57.63;100241.33;1634961;85;21914;-92
2023/12/29 07:03:33;;;;;;;18.85;9.53;;;;;;;12.28;58.25;100246.87;1630182;84;21385;-93
2023/12/29 07:06:44;;;;;;;17.00;9.58;;;;;;;12.78;56.98;100241.08;1658233;83;21225;-93
2023/12/29 07:09:51;;;;;;;18.90;9.30;;;;;;;12.51;57.89;100242.12;1648338;84;21330;-93
2023/12/29 07:13:01;;;;;;;21.37;10.65;;;;;;;12.51;57.66;100247.62;1649218;84;21257;-91
2023/12/29 07:16:11;;;;;;;20.30;10.40;;;;;;;12.73;57.07;100255.91;1632319;85;21936;-92
2023/12/29 07:19:22;;;;;;;21.87;9.80;;;;;;;12.69;57.06;100262.81;1622200;86;21428;-92
2023/12/29 07:22:28;;;;;;;16.27;9.83;;;;;;;12.68;57.16;100255.10;1653569;84;21380;-93
2023/12/29 07:25:34;;;;;;;20.20;9.88;;;;;;;12.58;57.29;100257.30;1648568;84;21341;-92
2023/12/29 07:28:41;;;;;;;21.25;9.73;;;;;;;12.93;56.57;100255.62;1638220;84;21983;-94
2023/12/29 07:31:47;;;;;;;19.90;9.80;;;;;;;12.92;56.66;100259.41;1642635;85;21392;-93
2023/12/29 07:34:53;;;;;;;14.55;9.45;;;;;;;12.78;56.83;100256.17;1621084;86;21373;-94
2023/12/29 07:38:02;;;;;;;20.62;10.25;;;;;;;12.82;57.01;100252.01;1610180;87;21355;-92
2023/12/29 07:41:09;;;;;;;22.98;10.98;;;;;;;13.03;56.66;100267.16;1646187;83;21335;-93
2023/12/29 07:44:17;;;;;;;18.00;10.35;;;;;;;13.25;56.20;100272.17;1614017;85;21367;-92
2023/12/29 07:47:23;;;;;;;15.90;9.20;;;;;;;13.20;55.94;100279.27;1657009;85;21727;-92
2023/12/29 07:50:30;;;;;;;18.48;10.00;;;;;;;13.33;55.82;100279.98;1666520;83;22160;-93
2023/12/29 07:53:37;;;;;;;19.73;9.68;;;;;;;13.35;55.35;100285.59;1639015;83;21393;-92
2023/12/29 07:56:43;;;;;;;21.30;10.80;;;;;;;13.55;54.89;100283.92;1650575;84;22418;-92
2023/12/29 07:59:49;;;;;;;20.30;9.75;;;;;;;13.72;54.06;100284.48;1641644;83;21423;-93
2023/12/29 08:02:59;;;;;;;18.75;10.03;;;;;;;13.41;54.84;100293.08;1610715;86;21372;-93
2023/12/29 08:06:06;;;;;;;20.97;10.28;;;;;;;13.38;55.07;100296.20;1633417;84;21377;-92
2023/12/29 08:09:16;;;;;;;18.82;10.23;;;;;;;13.64;54.55;100288.73;1636613;85;21365;-93
2023/12/29 08:12:22;;;;;;;17.02;10.18;;;;;;;13.68;54.47;100289.20;1655675;83;21245;-92
2023/12/29 08:15:32;;;;;;;21.87;10.30;;;;;;;13.60;54.45;100290.20;1634078;85;21917;-93
2023/12/29 08:18:38;;;;;;;20.65;10.23;;;;;;;13.62;54.71;100286.72;1649295;84;21399;-93
2023/12/29 08:21:47;;;;;;;20.32;10.23;;;;;;;13.92;53.96;100281.91;1647826;85;21306;-94
2023/12/29 08:24:54;;;;;;;16.55;9.50;;;;;;;13.92;53.58;100276.41;1645240;84;21421;-93
2023/12/29 08:28:00;;;;;;;18.92;9.05;;;;;;;13.55;54.10;100267.96;1644622;84;21353;-92
2023/12/29 08:31:10;;;;;;;19.95;9.58;;;;;;;13.52;54.03;100262.84;1648864;84;21937;-93
2023/12/29 08:34:17;;;;;;;15.58;9.18;;;;;;;13.58;53.63;100245.56;1660081;84;21417;-92
2023/12/29 08:37:26;;;;;;;21.57;10.45;;;;;;;13.50;53.82;100237.45;1656167;84;21714;-92
2023/12/29 08:40:35;;;;;;;22.52;10.38;;;;;;;13.31;54.46;100233.45;1641465;84;22379;-93
2023/12/29 08:43:41;;;;;;;16.67;9.75;;;;;;;13.21;55.25;100234.28;1649177;84;21360;-92
2023/12/29 08:46:48;;;;;;;21.20;10.20;;;;;;;13.44;54.94;100227.25;1632784;84;21356;-92
2023/12/29 08:50:08;;;;;;;17.30;9.85;;;;;;;13.54;54.82;100238.23;1629180;85;21372;-92
2023/12/29 08:53:17;;;;;;;22.13;10.78;;;;;;;13.65;54.20;100244.27;1654444;84;21945;-92
2023/12/29 08:56:24;;;;;;;19.20;10.18;;;;;;;13.56;54.39;100249.05;1635833;84;21428;-92
2023/12/29 08:59:30;;;;;;;18.48;9.30;;;;;;;13.70;54.35;100237.65;1639585;84;21345;-91
2023/12/29 09:02:38;;;;;;;26.85;11.70;;;;;;;13.99;53.56;100235.23;1642325;84;21336;-92
2023/12/29 09:05:45;;;;;;;22.17;10.93;;;;;;;14.04;53.19;100230.82;1650550;84;21344;-94
2023/12/29 09:08:53;;;;;;;16.65;9.38;;;;;;;13.91;53.13;100237.59;1655091;84;21367;-93
2023/12/29 09:12:01;;;;;;;19.45;10.98;;;;;;;14.06;53.08;100231.98;1661741;84;21368;-93
2023/12/29 09:15:15;;;;;;;22.00;10.10;;;;;;;14.10;52.71;100233.81;1658424;85;21374;-92
2023/12/29 09:18:32;;;;;;;16.02;9.73;;;;;;;14.24;52.23;100238.35;1651513;83;21965;-92
2023/12/29 09:21:48;;;;;;;20.55;10.75;;;;;;;14.01;52.05;100227.61;1635042;84;21356;-92
2023/12/29 09:24:58;;;;;;;22.07;10.53;;;;;;;13.66;52.97;100219.84;1630613;85;21416;-92
2023/12/29 09:28:13;;;;;;;17.67;9.70;;;;;;;13.70;53.09;100218.41;1627256;86;21734;-93
2023/12/29 09:31:24;;;;;;;19.02;9.63;;;;;;;13.63;53.47;100214.21;1637399;84;21373;-94
2023/12/29 09:34:33;;;;;;;19.23;9.95;;;;;;;13.48;53.70;100203.30;1642686;82;21402;-94
2023/12/29 09:37:41;;;;;;;17.92;10.20;;;;;;;13.45;53.98;100194.08;1655728;84;21281;-94
2023/12/29 09:40:54;;;;;;;14.78;9.45;;;;;;;13.44;53.89;100196.50;1636763;85;21417;-92
2023/12/29 09:44:02;;;;;;;16.95;10.25;;;;;;;13.44;54.10;100187.41;1648476;84;21341;-92
2023/12/29 09:47:12;;;;;;;18.02;10.20;;;;;;;13.47;54.17;100186.50;1639707;81;21399;-94
2023/12/29 09:50:27;;;;;;;18.50;9.70;;;;;;;13.52;54.34;100188.12;1636787;85;21388;-93
2023/12/29 09:53:34;;;;;;;19.05;9.50;;;;;;;13.71;54.00;100187.12;1637796;84;21380;-92
2023/12/29 09:56:43;;;;;;;19.52;9.55;;;;;;;13.37;54.32;100179.13;1632908;81;21992;-92
2023/12/29 09:59:51;;;;;;;18.67;8.93;;;;;;;13.54;53.90;100169.53;1638591;84;21353;-93
2023/12/29 10:03:00;;;;;;;19.45;10.58;;;;;;;13.64;53.85;100164.21;1643007;85;21380;-93
2023/12/29 10:06:09;;;;;;;19.98;9.33;;;;;;;13.54;54.48;100171.44;1636880;84;21274;-93
2023/12/29 10:09:19;;;;;;;;;;;;;;;13.70;54.39;100163.44;1663609;85;22199;-93
2023/12/29 10:12:25;;;;;;;21.02;10.28;;;;;;;13.67;54.16;100166.57;1640691;84;20311;-94
2023/12/29 10:15:55;;;;;;;15.60;9.73;;;;;;;13.95;53.69;100164.66;1623116;85;21246;-92
2023/12/29 10:19:17;;;;;;;22.40;9.77;;;;;;;14.02;53.67;100161.93;1648717;85;21363;-93
2023/12/29 10:22:54;;;;;;;18.52;9.93;;;;;;;14.35;52.99;100157.14;1658941;83;21307;-92
2023/12/29 10:26:06;;;;;;;14.98;9.15;;;;;;;14.31;52.69;100157.56;1642886;86;21255;-92
2023/12/29 10:29:18;;;;;;;21.97;10.43;;;;;;;14.15;52.85;100166.67;1679729;83;21356;-94
2023/12/29 10:32:28;;;;;;;19.15;10.98;;;;;;;13.80;53.71;100165.30;1637958;83;21409;-93
2023/12/29 10:35:37;;;;;;;21.62;10.30;;;;;;;13.79;54.12;100166.36;1619658;85;22130;-93
2023/12/29 10:38:49;;;;;;;17.42;10.75;;;;;;;13.86;54.11;100172.73;1638315;86;22212;-93
2023/12/29 10:41:55;;;;;;;25.17;12.63;;;;;;;13.99;54.22;100167.33;1638392;84;21284;-93
2023/12/29 10:45:16;;;;;;;17.23;10.13;;;;;;;13.83;54.81;100163.50;1631515;85;21416;-94
2023/12/29 10:48:32;;;;;;;17.98;10.13;;;;;;;13.82;54.37;100159.06;1650125;84;21838;-93
2023/12/29 10:51:40;;;;;;;18.48;10.20;;;;;;;13.53;54.63;100160.97;1662642;84;21359;-93
2023/12/29 10:54:46;;;;;;;23.10;10.08;;;;;;;13.73;53.93;100152.02;1657237;81;21393;-93
2023/12/29 10:57:54;;;;;;;18.45;10.45;;;;;;;13.39;54.94;100161.91;1640254;85;21394;-92
2023/12/29 11:01:01;;;;;;;21.25;11.95;;;;;;;13.27;55.51;100162.14;1643670;85;21393;-93
2023/12/29 11:04:15;;;;;;;17.90;10.65;;;;;;;13.47;55.21;100149.94;1657110;84;21275;-93
2023/12/29 11:07:21;;;;;;;18.70;10.50;;;;;;;13.64;54.85;100147.72;1643514;84;22501;-93
2023/12/29 11:10:33;;;;;;;21.75;10.68;;;;;;;13.61;54.46;100156.39;1658623;84;21263;-93
2023/12/29 11:13:40;;;;;;;19.82;11.57;;;;;;;13.39;55.00;100160.53;1632989;84;21364;-92
2023/12/29 11:16:49;;;;;;;21.35;12.90;;;;;;;13.46;54.59;100151.84;1657587;85;21277;-92
2023/12/29 11:19:55;;;;;;;18.67;10.95;;;;;;;13.49;54.64;100153.32;1634024;83;21416;-92
2023/12/29 11:23:04;;;;;;;20.82;11.20;;;;;;;13.66;54.00;100148.39;1620390;86;21456;-94
2023/12/29 11:26:11;;;;;;;25.97;11.95;;;;;;;13.65;53.87;100155.79;1637386;86;21970;-93
2023/12/29 11:29:19;;;;;;;23.22;11.88;;;;;;;13.64;53.99;100154.06;1638941;81;21352;-93
2023/12/29 11:32:29;;;;;;;17.23;11.65;;;;;;;13.76;53.72;100153.00;1658201;84;21348;-92
2023/12/29 11:36:07;;;;;;;24.15;12.78;;;;;;;14.04;53.10;100149.69;1650716;81;21344;-92
2023/12/29 11:39:37;;;;;;;24.25;10.65;;;;;;;13.91;53.23;100150.98;1644103;84;21270;-93
2023/12/29 11:42:48;;;;;;;24.72;11.60;;;;;;;13.85;53.64;100149.58;1642621;84;21433;-94
2023/12/29 11:45:54;;;;;;;19.92;11.35;;;;;;;13.62;54.08;100160.30;1639822;85;21424;-94
2023/12/29 11:49:07;;;;;;;26.55;13.08;;;;;;;13.76;54.08;100151.63;1604877;87;21895;-92
2023/12/29 11:52:14;;;;;;;22.98;12.33;;;;;;;13.64;54.02;100140.85;1632955;85;22038;-92
2023/12/29 11:55:22;;;;;;;18.65;11.38;;;;;;;13.92;53.48;100147.17;1630682;85;21381;-93
2023/12/29 11:58:33;;;;;;;24.90;13.58;;;;;;;13.81;53.58;100149.97;1650179;84;21341;-94
2023/12/29 12:01:41;;;;;;;21.17;13.03;;;;;;;13.79;53.62;100156.20;1619987;86;21260;-92
2023/12/29 12:04:50;;;;;;;22.48;13.35;;;;;;;13.85;53.40;100146.30;1632949;83;21293;-94
2023/12/29 12:08:06;;;;;;;20.75;11.50;;;;;;;13.94;53.43;100147.84;1631661;84;21355;-92
2023/12/29 12:11:40;;;;;;;20.82;11.28;;;;;;;13.89;53.43;100153.09;1633724;86;21385;-93
2023/12/29 12:14:57;;;;;;;21.93;12.45;;;;;;;13.97;52.94;100158.45;1629208;82;22283;-92
2023/12/29 12:18:09;;;;;;;20.60;12.28;;;;;;;13.75;53.09;100153.53;1654245;84;21876;-92
2023/12/29 12:21:15;;;;;;;22.00;14.07;;;;;;;13.74;53.18;100160.62;1631594;81;21256;-92
2023/12/29 12:24:21;;;;;;;26.45;13.45;;;;;;;13.48;53.45;100155.22;1610348;88;21326;-91
2023/12/29 12:27:29;;;;;;;25.82;13.55;;;;;;;13.54;53.45;100161.81;1636174;84;21324;-92
2023/12/29 12:30:35;;;;;;;20.57;13.43;;;;;;;13.43;53.50;100161.00;1673237;83;22499;-93
2023/12/29 12:33:41;;;;;;;22.67;12.85;;;;;;;13.11;54.23;100160.45;1645202;84;21388;-94
2023/12/29 12:37:02;;;;;;;23.87;15.30;;;;;;;12.93;55.25;100162.27;1656910;83;21380;-92
2023/12/29 12:40:08;;;;;;;23.20;13.88;;;;;;;13.22;54.90;100168.22;1645274;85;21393;-91
2023/12/29 12:43:18;;;;;;;22.55;12.98;;;;;;;13.24;54.52;100171.61;1650893;81;22228;-92
2023/12/29 12:46:25;;;;;;;22.00;14.05;;;;;;;13.09;54.71;100174.08;1639239;86;21413;-92
2023/12/29 12:49:31;;;;;;;26.85;14.40;;;;;;;13.18;54.56;100179.23;1611333;85;21277;-93
2023/12/29 12:52:40;;;;;;;22.13;14.20;;;;;;;13.21;54.50;100179.34;1649003;83;21393;-92
2023/12/29 12:55:47;;;;;;;28.87;14.50;;;;;;;12.90;55.13;100176.41;1645477;85;21952;-92
2023/12/29 12:58:53;;;;;;;21.33;13.45;;;;;;;12.69;55.88;100184.60;1658880;82;21366;-92
2023/12/29 13:02:00;;;;;;;24.02;14.30;;;;;;;12.68;56.10;100178.27;1643870;84;21868;-93
2023/12/29 13:05:07;;;;;;;27.52;14.90;;;;;;;12.80;55.60;100173.14;1631528;85;22678;-92
2023/12/29 13:08:14;;;;;;;27.45;13.68;;;;;;;13.00;55.16;100182.42;1663269;82;22943;-92
2023/12/29 13:11:25;;;;;;;30.10;14.50;;;;;;;12.83;55.33;100174.10;1654181;84;21354;-92
2023/12/29 13:14:30;;;;;;;26.85;15.95;;;;;;;12.87;55.46;100174.05;1630386;84;22076;-92
2023/12/29 13:17:38;;;;;;;29.98;15.93;;;;;;;12.75;55.82;100176.95;1618514;86;21365;-92
2023/12/29 13:20:56;;;;;;;25.30;15.32;;;;;;;12.82;55.27;100162.80;1633983;82;21947;-92
2023/12/29 13:24:07;;;;;;;20.60;13.70;;;;;;;12.82;55.27;100162.80;1650500;84;21381;-94
2023/12/29 13:27:15;;;;;;;23.32;13.90;;;;;;;12.76;55.83;100170.45;1630319;83;21348;-92
2023/12/29 13:30:23;;;;;;;25.27;15.43;;;;;;;12.78;55.77;100167.82;1646053;84;21442;-93
2023/12/29 13:33:56;;;;;;;27.75;16.32;;;;;;;12.45;56.30;100163.31;1630349;82;21423;-92
2023/12/29 13:37:10;;;;;;;37.95;17.65;;;;;;;12.51;57.02;100160.32;1631513;85;21290;-92
2023/12/29 13:40:24;;;;;;;25.00;14.83;;;;;;;12.97;55.59;100162.22;1631471;84;21384;-92
2023/12/29 13:43:31;;;;;;;29.57;17.07;;;;;;;12.95;55.24;100162.95;1633201;86;21385;-92
2023/12/29 13:46:36;;;;;;;26.90;16.62;;;;;;;12.52;56.47;100167.01;1628385;86;21370;-92
2023/12/29 13:49:47;;;;;;;27.85;17.07;;;;;;;12.58;56.38;100170.87;1611069;86;21406;-92
2023/12/29 13:52:54;;;;;;;33.42;17.25;;;;;;;12.72;56.23;100169.13;1652570;83;21927;-93
2023/12/29 13:56:00;;;;;;;25.95;15.45;;;;;;;12.95;56.05;100167.06;1665645;83;21883;-93
2023/12/29 13:59:07;;;;;;;32.95;17.62;;;;;;;12.92;55.73;100160.58;1630348;86;21388;-93
2023/12/29 14:02:31;;;;;;;22.65;15.72;;;;;;;12.81;55.36;100167.97;1639209;87;21355;-92
2023/12/29 14:05:57;;;;;;;21.35;14.35;;;;;;;12.70;55.72;100165.71;1629557;86;22043;-92
2023/12/29 14:09:06;;;;;;;26.87;15.63;;;;;;;12.73;55.26;100159.84;1631602;86;21365;-93
2023/12/29 14:12:13;;;;;;;25.37;16.52;;;;;;;12.67;55.09;100160.63;1588368;89;21392;-92
2023/12/29 14:15:18;;;;;;;30.37;17.02;;;;;;;12.83;54.73;100156.78;1624830;85;21962;-92
2023/12/29 14:18:40;;;;;;;27.95;16.55;;;;;;;12.76;55.32;100156.73;1646727;84;21424;-94
2023/12/29 14:21:47;;;;;;;25.05;15.83;;;;;;;12.78;54.96;100164.23;1634155;86;21402;-92
2023/12/29 14:25:09;;;;;;;30.68;17.50;;;;;;;12.64;55.03;100168.72;1661379;80;21354;-92
2023/12/29 14:28:28;;;;;;;28.73;15.90;;;;;;;12.61;55.29;100160.02;1659575;83;21359;-91